sensor_id;sensor_type;location;lat;lon;timestamp;temperature;humidity
57664;DHT22;43493;53.098;6.064;2022-12-04T00:01:16;1.50;99.90
57664;DHT22;43493;53.098;6.064;2022-12-04T00:03:42;1.50;99.90
57664;DHT22;43493;53.098;6.064;2022-12-04T00:06:27;1.50;99.90
57664;DHT22;43493;53.098;6.064;2022-12-04T00:08:53;1.60;99.90
57664;DHT22;43493;53.098;6.064;2022-12-04T00:11:22;1.70;99.90
57664;DHT22;43493;53.098;6.064;2022-12-04T00:13:48;1.60;99.90
57664;DHT22;43493;53.098;6.064;2022-12-04T00:16:17;1.60;99.90
57664;DHT22;43493;53.098;6.064;2022-12-04T00:18:43;1.60;99.90
57664;DHT22;43493;53.098;6.064;2022-12-04T00:21:11;1.50;99.90
57664;DHT22;43493;53.098;6.064;2022-12-04T00:23:37;1.60;99.90
57664;DHT22;43493;53.098;6.064;2022-12-04T00:26:06;1.50;99.90
57664;DHT22;43493;53.098;6.064;2022-12-04T00:28:33;1.60;99.90
57664;DHT22;43493;53.098;6.064;2022-12-04T00:30:59;1.50;99.90
57664;DHT22;43493;53.098;6.064;2022-12-04T00:33:25;1.60;99.90
57664;DHT22;43493;53.098;6.064;2022-12-04T00:36:02;1.70;99.90
57664;DHT22;43493;53.098;6.064;2022-12-04T00:38:28;1.50;99.90
57664;DHT22;43493;53.098;6.064;2022-12-04T00:40:54;1.60;99.90
57664;DHT22;43493;53.098;6.064;2022-12-04T00:43:20;1.60;99.90
57664;DHT22;43493;53.098;6.064;2022-12-04T00:45:46;1.60;99.90
57664;DHT22;43493;53.098;6.064;2022-12-04T00:48:12;1.60;99.90
57664;DHT22;43493;53.098;6.064;2022-12-04T00:50:38;1.60;99.90
57664;DHT22;43493;53.098;6.064;2022-12-04T00:53:03;1.60;99.90
57664;DHT22;43493;53.098;6.064;2022-12-04T00:55:29;1.70;99.90
57664;DHT22;43493;53.098;6.064;2022-12-04T00:57:55;1.60;99.90
57664;DHT22;43493;53.098;6.064;2022-12-04T01:00:21;1.60;99.90
57664;DHT22;43493;53.098;6.064;2022-12-04T01:02:46;1.60;99.90
57664;DHT22;43493;53.098;6.064;2022-12-04T01:05:12;1.60;99.90
57664;DHT22;43493;53.098;6.064;2022-12-04T01:07:38;1.50;99.90
57664;DHT22;43493;53.098;6.064;2022-12-04T01:10:06;1.60;99.90
57664;DHT22;43493;53.098;6.064;2022-12-04T01:12:32;1.50;99.90
57664;DHT22;43493;53.098;6.064;2022-12-04T01:14:58;1.60;99.90
57664;DHT22;43493;53.098;6.064;2022-12-04T01:17:24;1.60;99.90
57664;DHT22;43493;53.098;6.064;2022-12-04T01:19:50;1.60;99.90
57664;DHT22;43493;53.098;6.064;2022-12-04T01:22:15;1.60;99.90
57664;DHT22;43493;53.098;6.064;2022-12-04T01:24:41;1.50;99.90
57664;DHT22;43493;53.098;6.064;2022-12-04T01:27:07;1.50;99.90
57664;DHT22;43493;53.098;6.064;2022-12-04T01:29:32;1.50;99.90
57664;DHT22;43493;53.098;6.064;2022-12-04T01:31:58;1.50;99.90
57664;DHT22;43493;53.098;6.064;2022-12-04T01:34:24;1.50;99.90
57664;DHT22;43493;53.098;6.064;2022-12-04T01:36:50;1.60;99.90
57664;DHT22;43493;53.098;6.064;2022-12-04T01:39:16;1.50;99.90
57664;DHT22;43493;53.098;6.064;2022-12-04T01:41:42;1.50;99.90
57664;DHT22;43493;53.098;6.064;2022-12-04T01:44:20;1.50;99.90
57664;DHT22;43493;53.098;6.064;2022-12-04T01:46:50;1.50;99.90
57664;DHT22;43493;53.098;6.064;2022-12-04T01:49:38;1.50;99.90
57664;DHT22;43493;53.098;6.064;2022-12-04T01:52:11;1.50;99.90
57664;DHT22;43493;53.098;6.064;2022-12-04T01:54:44;1.50;99.90
57664;DHT22;43493;53.098;6.064;2022-12-04T01:57:16;1.50;99.90
57664;DHT22;43493;53.098;6.064;2022-12-04T01:59:49;1.50;99.90
57664;DHT22;43493;53.098;6.064;2022-12-04T02:02:19;1.50;99.90
57664;DHT22;43493;53.098;6.064;2022-12-04T02:04:45;1.40;99.90
57664;DHT22;43493;53.098;6.064;2022-12-04T02:07:11;1.50;99.90
57664;DHT22;43493;53.098;6.064;2022-12-04T02:09:38;1.50;99.90
57664;DHT22;43493;53.098;6.064;2022-12-04T02:31:12;1.30;99.90
57664;DHT22;43493;53.098;6.064;2022-12-04T02:33:51;1.40;99.90
57664;DHT22;43493;53.098;6.064;2022-12-04T02:36:21;1.40;99.90
57664;DHT22;43493;53.098;6.064;2022-12-04T02:38:54;1.30;99.90
57664;DHT22;43493;53.098;6.064;2022-12-04T02:41:39;1.30;99.90
57664;DHT22;43493;53.098;6.064;2022-12-04T02:44:21;1.30;99.90
57664;DHT22;43493;53.098;6.064;2022-12-04T02:46:55;1.30;99.90
57664;DHT22;43493;53.098;6.064;2022-12-04T02:49:27;1.30;99.90
57664;DHT22;43493;53.098;6.064;2022-12-04T02:51:56;1.20;99.90
57664;DHT22;43493;53.098;6.064;2022-12-04T02:54:32;1.20;99.90
57664;DHT22;43493;53.098;6.064;2022-12-04T02:57:00;1.20;99.90
57664;DHT22;43493;53.098;6.064;2022-12-04T02:59:32;1.20;99.90
57664;DHT22;43493;53.098;6.064;2022-12-04T03:02:06;1.20;99.90
57664;DHT22;43493;53.098;6.064;2022-12-04T03:04:34;1.20;99.90
57664;DHT22;43493;53.098;6.064;2022-12-04T03:07:06;1.30;99.90
57664;DHT22;43493;53.098;6.064;2022-12-04T03:09:58;1.20;99.90
57664;DHT22;43493;53.098;6.064;2022-12-04T03:12:46;1.20;99.90
57664;DHT22;43493;53.098;6.064;2022-12-04T03:15:23;1.20;99.90
57664;DHT22;43493;53.098;6.064;2022-12-04T03:17:54;1.20;99.90
57664;DHT22;43493;53.098;6.064;2022-12-04T03:20:23;1.20;99.90
57664;DHT22;43493;53.098;6.064;2022-12-04T03:22:54;1.20;99.90
57664;DHT22;43493;53.098;6.064;2022-12-04T03:25:27;1.20;99.90
57664;DHT22;43493;53.098;6.064;2022-12-04T03:28:06;1.20;99.90
57664;DHT22;43493;53.098;6.064;2022-12-04T03:30:40;1.20;99.90
57664;DHT22;43493;53.098;6.064;2022-12-04T03:33:12;1.10;99.90
57664;DHT22;43493;53.098;6.064;2022-12-04T03:36:09;1.10;99.90
57664;DHT22;43493;53.098;6.064;2022-12-04T03:38:43;1.10;99.90
57664;DHT22;43493;53.098;6.064;2022-12-04T03:44:05;1.10;99.90
57664;DHT22;43493;53.098;6.064;2022-12-04T03:52:08;1.20;99.90
57664;DHT22;43493;53.098;6.064;2022-12-04T03:54:46;1.20;99.90
57664;DHT22;43493;53.098;6.064;2022-12-04T03:57:18;1.20;99.90
57664;DHT22;43493;53.098;6.064;2022-12-04T03:59:52;1.10;99.90
57664;DHT22;43493;53.098;6.064;2022-12-04T04:02:21;1.10;99.90
57664;DHT22;43493;53.098;6.064;2022-12-04T04:04:51;1.10;99.90
57664;DHT22;43493;53.098;6.064;2022-12-04T04:07:23;1.20;99.90
57664;DHT22;43493;53.098;6.064;2022-12-04T04:09:57;1.10;99.90
57664;DHT22;43493;53.098;6.064;2022-12-04T04:12:27;1.10;99.90
57664;DHT22;43493;53.098;6.064;2022-12-04T04:15:00;1.10;99.90
57664;DHT22;43493;53.098;6.064;2022-12-04T04:17:46;1.20;99.90
57664;DHT22;43493;53.098;6.064;2022-12-04T04:20:44;1.10;99.90
57664;DHT22;43493;53.098;6.064;2022-12-04T04:23:33;1.10;99.90
57664;DHT22;43493;53.098;6.064;2022-12-04T04:26:18;1.20;99.90
57664;DHT22;43493;53.098;6.064;2022-12-04T04:28:44;1.10;99.90
57664;DHT22;43493;53.098;6.064;2022-12-04T04:36:57;1.10;99.90
57664;DHT22;43493;53.098;6.064;2022-12-04T04:39:35;1.10;99.90
57664;DHT22;43493;53.098;6.064;2022-12-04T04:42:31;1.10;99.90
57664;DHT22;43493;53.098;6.064;2022-12-04T04:45:25;1.10;99.90
57664;DHT22;43493;53.098;6.064;2022-12-04T04:50:22;1.10;99.90
57664;DHT22;43493;53.098;6.064;2022-12-04T04:52:53;1.10;99.90
57664;DHT22;43493;53.098;6.064;2022-12-04T04:55:20;1.00;99.90
57664;DHT22;43493;53.098;6.064;2022-12-04T04:57:47;1.00;99.90
57664;DHT22;43493;53.098;6.064;2022-12-04T05:00:19;1.10;99.90
57664;DHT22;43493;53.098;6.064;2022-12-04T05:02:45;1.10;99.90
57664;DHT22;43493;53.098;6.064;2022-12-04T05:05:13;1.10;99.90
57664;DHT22;43493;53.098;6.064;2022-12-04T05:07:39;1.00;99.90
57664;DHT22;43493;53.098;6.064;2022-12-04T05:10:05;1.10;99.90
57664;DHT22;43493;53.098;6.064;2022-12-04T05:12:31;1.00;99.90
57664;DHT22;43493;53.098;6.064;2022-12-04T05:14:57;1.10;99.90
57664;DHT22;43493;53.098;6.064;2022-12-04T05:17:22;1.10;99.90
57664;DHT22;43493;53.098;6.064;2022-12-04T05:19:48;1.00;99.90
57664;DHT22;43493;53.098;6.064;2022-12-04T05:22:30;1.00;99.90
57664;DHT22;43493;53.098;6.064;2022-12-04T05:24:57;1.00;99.90
57664;DHT22;43493;53.098;6.064;2022-12-04T05:27:24;1.00;99.90
57664;DHT22;43493;53.098;6.064;2022-12-04T05:29:54;1.00;99.90
57664;DHT22;43493;53.098;6.064;2022-12-04T05:32:21;1.00;99.90
57664;DHT22;43493;53.098;6.064;2022-12-04T05:34:48;1.00;99.90
57664;DHT22;43493;53.098;6.064;2022-12-04T05:37:14;1.00;99.90
57664;DHT22;43493;53.098;6.064;2022-12-04T05:39:39;0.90;99.90
57664;DHT22;43493;53.098;6.064;2022-12-04T05:42:05;1.00;99.90
57664;DHT22;43493;53.098;6.064;2022-12-04T05:44:31;1.00;99.90
57664;DHT22;43493;53.098;6.064;2022-12-04T05:46:56;1.00;99.90
57664;DHT22;43493;53.098;6.064;2022-12-04T05:49:22;1.00;99.90
57664;DHT22;43493;53.098;6.064;2022-12-04T05:51:49;1.00;99.90
57664;DHT22;43493;53.098;6.064;2022-12-04T05:54:16;1.00;99.90
57664;DHT22;43493;53.098;6.064;2022-12-04T05:56:42;1.00;99.90
57664;DHT22;43493;53.098;6.064;2022-12-04T05:59:08;1.00;99.90
57664;DHT22;43493;53.098;6.064;2022-12-04T06:01:33;1.00;99.90
57664;DHT22;43493;53.098;6.064;2022-12-04T06:03:59;1.00;99.90
57664;DHT22;43493;53.098;6.064;2022-12-04T06:06:25;0.90;99.90
57664;DHT22;43493;53.098;6.064;2022-12-04T06:08:54;0.90;99.90
57664;DHT22;43493;53.098;6.064;2022-12-04T06:11:22;1.00;99.90
57664;DHT22;43493;53.098;6.064;2022-12-04T06:13:49;1.00;99.90
57664;DHT22;43493;53.098;6.064;2022-12-04T06:16:17;1.00;99.90
57664;DHT22;43493;53.098;6.064;2022-12-04T06:18:44;1.00;99.90
57664;DHT22;43493;53.098;6.064;2022-12-04T06:21:12;1.00;99.90
57664;DHT22;43493;53.098;6.064;2022-12-04T06:23:38;1.00;99.90
57664;DHT22;43493;53.098;6.064;2022-12-04T06:26:06;0.90;99.90
57664;DHT22;43493;53.098;6.064;2022-12-04T06:28:32;0.90;99.90
57664;DHT22;43493;53.098;6.064;2022-12-04T06:31:08;1.00;99.90
57664;DHT22;43493;53.098;6.064;2022-12-04T06:33:34;0.90;99.90
57664;DHT22;43493;53.098;6.064;2022-12-04T06:36:12;0.90;99.90
57664;DHT22;43493;53.098;6.064;2022-12-04T06:38:39;0.90;99.90
57664;DHT22;43493;53.098;6.064;2022-12-04T06:41:07;0.90;99.90
57664;DHT22;43493;53.098;6.064;2022-12-04T06:43:33;0.90;99.90
57664;DHT22;43493;53.098;6.064;2022-12-04T06:46:05;0.90;99.90
57664;DHT22;43493;53.098;6.064;2022-12-04T06:48:31;0.90;99.90
57664;DHT22;43493;53.098;6.064;2022-12-04T06:51:04;1.00;99.90
57664;DHT22;43493;53.098;6.064;2022-12-04T06:53:31;1.00;99.90
57664;DHT22;43493;53.098;6.064;2022-12-04T06:56:04;1.00;99.90
57664;DHT22;43493;53.098;6.064;2022-12-04T06:58:30;1.00;99.90
57664;DHT22;43493;53.098;6.064;2022-12-04T07:00:56;1.00;99.90
57664;DHT22;43493;53.098;6.064;2022-12-04T07:03:23;1.00;99.90
57664;DHT22;43493;53.098;6.064;2022-12-04T07:05:49;1.00;99.90
57664;DHT22;43493;53.098;6.064;2022-12-04T07:08:15;1.00;99.90
57664;DHT22;43493;53.098;6.064;2022-12-04T07:10:41;1.00;99.90
57664;DHT22;43493;53.098;6.064;2022-12-04T07:13:07;1.00;99.90
57664;DHT22;43493;53.098;6.064;2022-12-04T07:15:34;0.90;99.90
57664;DHT22;43493;53.098;6.064;2022-12-04T07:18:01;1.10;99.90
57664;DHT22;43493;53.098;6.064;2022-12-04T07:20:26;1.10;99.90
57664;DHT22;43493;53.098;6.064;2022-12-04T07:22:52;1.00;99.90
57664;DHT22;43493;53.098;6.064;2022-12-04T07:25:18;1.00;99.90
57664;DHT22;43493;53.098;6.064;2022-12-04T07:27:44;1.10;99.90
57664;DHT22;43493;53.098;6.064;2022-12-04T07:30:10;1.00;99.90
57664;DHT22;43493;53.098;6.064;2022-12-04T07:32:36;1.00;99.90
57664;DHT22;43493;53.098;6.064;2022-12-04T07:35:03;1.00;99.90
57664;DHT22;43493;53.098;6.064;2022-12-04T07:37:28;1.00;99.90
57664;DHT22;43493;53.098;6.064;2022-12-04T07:39:54;1.00;99.90
57664;DHT22;43493;53.098;6.064;2022-12-04T07:42:20;1.00;99.90
57664;DHT22;43493;53.098;6.064;2022-12-04T07:44:46;1.00;99.90
57664;DHT22;43493;53.098;6.064;2022-12-04T07:47:12;1.00;99.90
57664;DHT22;43493;53.098;6.064;2022-12-04T07:49:38;1.00;99.90
57664;DHT22;43493;53.098;6.064;2022-12-04T07:52:04;1.00;99.90
57664;DHT22;43493;53.098;6.064;2022-12-04T07:54:30;1.10;99.90
57664;DHT22;43493;53.098;6.064;2022-12-04T07:56:56;1.00;99.90
57664;DHT22;43493;53.098;6.064;2022-12-04T07:59:22;1.00;99.90
57664;DHT22;43493;53.098;6.064;2022-12-04T08:01:48;1.00;99.90
57664;DHT22;43493;53.098;6.064;2022-12-04T08:04:13;1.10;99.90
57664;DHT22;43493;53.098;6.064;2022-12-04T08:06:39;1.00;99.90
57664;DHT22;43493;53.098;6.064;2022-12-04T08:09:06;1.10;99.90
57664;DHT22;43493;53.098;6.064;2022-12-04T08:11:32;1.10;99.90
57664;DHT22;43493;53.098;6.064;2022-12-04T08:14:00;1.00;99.90
57664;DHT22;43493;53.098;6.064;2022-12-04T08:16:28;1.10;99.90
57664;DHT22;43493;53.098;6.064;2022-12-04T08:18:54;1.00;99.90
57664;DHT22;43493;53.098;6.064;2022-12-04T08:21:23;1.10;99.90
57664;DHT22;43493;53.098;6.064;2022-12-04T08:23:53;1.10;99.90
57664;DHT22;43493;53.098;6.064;2022-12-04T08:26:21;1.10;99.90
57664;DHT22;43493;53.098;6.064;2022-12-04T08:28:47;1.10;99.90
57664;DHT22;43493;53.098;6.064;2022-12-04T08:31:16;1.10;99.90
57664;DHT22;43493;53.098;6.064;2022-12-04T08:33:43;1.10;99.90
57664;DHT22;43493;53.098;6.064;2022-12-04T08:36:12;1.20;99.90
57664;DHT22;43493;53.098;6.064;2022-12-04T08:38:38;1.20;99.90
57664;DHT22;43493;53.098;6.064;2022-12-04T08:41:08;1.20;99.90
57664;DHT22;43493;53.098;6.064;2022-12-04T08:43:35;1.20;99.90
57664;DHT22;43493;53.098;6.064;2022-12-04T08:46:03;1.20;99.90
57664;DHT22;43493;53.098;6.064;2022-12-04T08:48:29;1.30;99.90
57664;DHT22;43493;53.098;6.064;2022-12-04T08:50:55;1.20;99.90
57664;DHT22;43493;53.098;6.064;2022-12-04T08:53:22;1.20;99.90
57664;DHT22;43493;53.098;6.064;2022-12-04T08:55:48;1.30;99.90
57664;DHT22;43493;53.098;6.064;2022-12-04T08:58:14;1.20;99.90
57664;DHT22;43493;53.098;6.064;2022-12-04T09:00:40;1.20;99.90
57664;DHT22;43493;53.098;6.064;2022-12-04T09:03:06;1.30;99.90
57664;DHT22;43493;53.098;6.064;2022-12-04T09:05:32;1.30;99.90
57664;DHT22;43493;53.098;6.064;2022-12-04T09:07:58;1.30;99.90
57664;DHT22;43493;53.098;6.064;2022-12-04T09:10:23;1.30;99.90
57664;DHT22;43493;53.098;6.064;2022-12-04T09:12:49;1.40;99.90
57664;DHT22;43493;53.098;6.064;2022-12-04T09:15:15;1.30;99.90
57664;DHT22;43493;53.098;6.064;2022-12-04T09:17:41;1.40;99.90
57664;DHT22;43493;53.098;6.064;2022-12-04T09:20:07;1.40;99.90
57664;DHT22;43493;53.098;6.064;2022-12-04T09:22:34;1.40;99.90
57664;DHT22;43493;53.098;6.064;2022-12-04T09:25:01;1.50;99.90
57664;DHT22;43493;53.098;6.064;2022-12-04T09:27:29;1.50;99.90
57664;DHT22;43493;53.098;6.064;2022-12-04T09:29:55;1.60;99.90
57664;DHT22;43493;53.098;6.064;2022-12-04T09:32:21;1.60;99.90
57664;DHT22;43493;53.098;6.064;2022-12-04T09:34:47;1.50;99.90
57664;DHT22;43493;53.098;6.064;2022-12-04T09:37:13;1.60;99.90
57664;DHT22;43493;53.098;6.064;2022-12-04T09:39:40;1.60;99.90
57664;DHT22;43493;53.098;6.064;2022-12-04T09:42:15;1.60;99.90
57664;DHT22;43493;53.098;6.064;2022-12-04T09:44:46;1.60;99.90
57664;DHT22;43493;53.098;6.064;2022-12-04T09:47:32;1.60;99.90
57664;DHT22;43493;53.098;6.064;2022-12-04T09:50:23;1.70;99.90
57664;DHT22;43493;53.098;6.064;2022-12-04T09:53:02;1.70;99.90
57664;DHT22;43493;53.098;6.064;2022-12-04T09:55:36;1.70;99.90
57664;DHT22;43493;53.098;6.064;2022-12-04T09:58:06;1.80;99.90
57664;DHT22;43493;53.098;6.064;2022-12-04T10:00:37;1.80;99.90
57664;DHT22;43493;53.098;6.064;2022-12-04T10:03:13;1.80;99.90
57664;DHT22;43493;53.098;6.064;2022-12-04T10:08:23;1.90;99.90
57664;DHT22;43493;53.098;6.064;2022-12-04T10:26:54;2.10;99.90
57664;DHT22;43493;53.098;6.064;2022-12-04T10:29:29;2.00;99.90
57664;DHT22;43493;53.098;6.064;2022-12-04T10:32:02;2.00;99.90
57664;DHT22;43493;53.098;6.064;2022-12-04T10:34:30;2.10;99.90
57664;DHT22;43493;53.098;6.064;2022-12-04T10:37:00;2.20;99.90
57664;DHT22;43493;53.098;6.064;2022-12-04T10:39:32;2.20;99.90
57664;DHT22;43493;53.098;6.064;2022-12-04T10:42:14;2.30;99.90
57664;DHT22;43493;53.098;6.064;2022-12-04T10:44:42;2.30;99.90
57664;DHT22;43493;53.098;6.064;2022-12-04T10:47:10;2.30;99.90
57664;DHT22;43493;53.098;6.064;2022-12-04T10:49:37;2.30;99.90
57664;DHT22;43493;53.098;6.064;2022-12-04T10:52:04;2.40;99.90
57664;DHT22;43493;53.098;6.064;2022-12-04T10:54:51;2.50;99.90
57664;DHT22;43493;53.098;6.064;2022-12-04T10:57:19;2.50;99.90
57664;DHT22;43493;53.098;6.064;2022-12-04T10:59:53;2.60;99.90
57664;DHT22;43493;53.098;6.064;2022-12-04T11:05:01;2.60;99.90
57664;DHT22;43493;53.098;6.064;2022-12-04T11:07:31;2.50;99.90
57664;DHT22;43493;53.098;6.064;2022-12-04T11:12:30;2.70;99.90
57664;DHT22;43493;53.098;6.064;2022-12-04T11:15:02;2.70;99.90
57664;DHT22;43493;53.098;6.064;2022-12-04T11:17:28;2.80;99.90
57664;DHT22;43493;53.098;6.064;2022-12-04T11:20:14;2.80;99.90
57664;DHT22;43493;53.098;6.064;2022-12-04T11:22:49;2.80;99.90
57664;DHT22;43493;53.098;6.064;2022-12-04T11:25:16;2.80;99.90
57664;DHT22;43493;53.098;6.064;2022-12-04T11:27:46;2.90;99.90
57664;DHT22;43493;53.098;6.064;2022-12-04T11:30:17;2.90;99.90
57664;DHT22;43493;53.098;6.064;2022-12-04T11:32:44;2.90;99.90
57664;DHT22;43493;53.098;6.064;2022-12-04T11:35:16;2.90;99.90
57664;DHT22;43493;53.098;6.064;2022-12-04T11:38:07;3.00;99.90
57664;DHT22;43493;53.098;6.064;2022-12-04T11:40:35;2.90;99.90
57664;DHT22;43493;53.098;6.064;2022-12-04T11:43:14;2.90;99.90
57664;DHT22;43493;53.098;6.064;2022-12-04T11:45:40;2.90;99.90
57664;DHT22;43493;53.098;6.064;2022-12-04T11:48:14;2.90;99.90
57664;DHT22;43493;53.098;6.064;2022-12-04T11:56:33;2.80;99.90
57664;DHT22;43493;53.098;6.064;2022-12-04T12:04:35;2.90;99.90
57664;DHT22;43493;53.098;6.064;2022-12-04T12:15:12;2.90;99.90
57664;DHT22;43493;53.098;6.064;2022-12-04T12:17:45;2.90;99.90
57664;DHT22;43493;53.098;6.064;2022-12-04T12:20:22;2.90;99.90
57664;DHT22;43493;53.098;6.064;2022-12-04T12:23:06;2.80;99.90
57664;DHT22;43493;53.098;6.064;2022-12-04T12:26:04;2.80;99.90
57664;DHT22;43493;53.098;6.064;2022-12-04T12:31:27;2.90;99.90
57664;DHT22;43493;53.098;6.064;2022-12-04T12:36:29;2.90;99.90
57664;DHT22;43493;53.098;6.064;2022-12-04T12:39:02;2.90;99.90
57664;DHT22;43493;53.098;6.064;2022-12-04T12:46:39;3.00;99.90
57664;DHT22;43493;53.098;6.064;2022-12-04T12:49:19;3.00;99.90
57664;DHT22;43493;53.098;6.064;2022-12-04T12:52:03;3.00;99.90
57664;DHT22;43493;53.098;6.064;2022-12-04T12:54:45;3.00;99.90
57664;DHT22;43493;53.098;6.064;2022-12-04T12:57:36;3.00;99.90
57664;DHT22;43493;53.098;6.064;2022-12-04T13:02:50;3.00;99.90
57664;DHT22;43493;53.098;6.064;2022-12-04T13:05:34;3.00;99.90
57664;DHT22;43493;53.098;6.064;2022-12-04T13:11:13;3.10;99.90
57664;DHT22;43493;53.098;6.064;2022-12-04T13:14:10;3.10;99.90
57664;DHT22;43493;53.098;6.064;2022-12-04T13:16:39;3.20;99.90
57664;DHT22;43493;53.098;6.064;2022-12-04T13:25:24;3.20;99.90
57664;DHT22;43493;53.098;6.064;2022-12-04T13:30:58;3.20;99.90
57664;DHT22;43493;53.098;6.064;2022-12-04T13:42:26;3.20;99.90
57664;DHT22;43493;53.098;6.064;2022-12-04T13:45:08;3.20;99.90
57664;DHT22;43493;53.098;6.064;2022-12-04T13:47:35;3.20;99.90
57664;DHT22;43493;53.098;6.064;2022-12-04T13:52:53;3.20;99.90
57664;DHT22;43493;53.098;6.064;2022-12-04T13:55:26;3.20;99.90
57664;DHT22;43493;53.098;6.064;2022-12-04T13:57:54;3.20;99.90
57664;DHT22;43493;53.098;6.064;2022-12-04T14:00:32;3.30;99.90
57664;DHT22;43493;53.098;6.064;2022-12-04T14:03:18;3.30;99.90
57664;DHT22;43493;53.098;6.064;2022-12-04T14:05:46;3.20;99.90
57664;DHT22;43493;53.098;6.064;2022-12-04T14:10:43;3.20;99.90
57664;DHT22;43493;53.098;6.064;2022-12-04T14:13:18;3.30;99.90
57664;DHT22;43493;53.098;6.064;2022-12-04T14:15:46;3.20;99.90
57664;DHT22;43493;53.098;6.064;2022-12-04T14:20:40;3.30;99.90
57664;DHT22;43493;53.098;6.064;2022-12-04T14:25:44;3.20;99.90
57664;DHT22;43493;53.098;6.064;2022-12-04T14:33:51;3.20;99.90
57664;DHT22;43493;53.098;6.064;2022-12-04T14:36:32;3.20;99.90
57664;DHT22;43493;53.098;6.064;2022-12-04T14:45:02;3.40;99.90
57664;DHT22;43493;53.098;6.064;2022-12-04T14:50:33;3.30;99.90
57664;DHT22;43493;53.098;6.064;2022-12-04T14:59:21;3.30;99.90
57664;DHT22;43493;53.098;6.064;2022-12-04T15:01:50;3.30;99.90
57664;DHT22;43493;53.098;6.064;2022-12-04T15:04:27;3.30;99.90
57664;DHT22;43493;53.098;6.064;2022-12-04T15:06:54;3.20;99.90
57664;DHT22;43493;53.098;6.064;2022-12-04T15:09:22;3.20;99.90
57664;DHT22;43493;53.098;6.064;2022-12-04T15:12:19;3.30;99.90
57664;DHT22;43493;53.098;6.064;2022-12-04T15:15:16;3.30;99.90
57664;DHT22;43493;53.098;6.064;2022-12-04T15:18:10;3.20;99.90
57664;DHT22;43493;53.098;6.064;2022-12-04T15:23:18;3.20;99.90
57664;DHT22;43493;53.098;6.064;2022-12-04T15:25:53;3.20;99.90
57664;DHT22;43493;53.098;6.064;2022-12-04T15:28:20;3.20;99.90
57664;DHT22;43493;53.098;6.064;2022-12-04T15:30:49;3.20;99.90
57664;DHT22;43493;53.098;6.064;2022-12-04T15:33:25;3.10;99.90
57664;DHT22;43493;53.098;6.064;2022-12-04T15:35:57;3.10;99.90
57664;DHT22;43493;53.098;6.064;2022-12-04T15:38:25;3.10;99.90
57664;DHT22;43493;53.098;6.064;2022-12-04T15:40:58;3.00;99.90
57664;DHT22;43493;53.098;6.064;2022-12-04T15:43:39;3.00;99.90
57664;DHT22;43493;53.098;6.064;2022-12-04T15:46:22;3.10;99.90
57664;DHT22;43493;53.098;6.064;2022-12-04T15:48:49;3.00;99.90
57664;DHT22;43493;53.098;6.064;2022-12-04T15:51:17;3.00;99.90
57664;DHT22;43493;53.098;6.064;2022-12-04T15:53:45;3.10;99.90
57664;DHT22;43493;53.098;6.064;2022-12-04T15:56:19;3.10;99.90
57664;DHT22;43493;53.098;6.064;2022-12-04T15:58:57;3.10;99.90
57664;DHT22;43493;53.098;6.064;2022-12-04T16:01:24;3.10;99.90
57664;DHT22;43493;53.098;6.064;2022-12-04T16:03:52;3.10;99.90
57664;DHT22;43493;53.098;6.064;2022-12-04T16:09:00;3.20;99.90
57664;DHT22;43493;53.098;6.064;2022-12-04T16:11:32;3.20;99.90
57664;DHT22;43493;53.098;6.064;2022-12-04T16:16:33;3.30;99.90
57664;DHT22;43493;53.098;6.064;2022-12-04T16:19:07;3.30;99.90
57664;DHT22;43493;53.098;6.064;2022-12-04T16:21:34;3.20;99.90
57664;DHT22;43493;53.098;6.064;2022-12-04T16:24:02;3.30;99.90
57664;DHT22;43493;53.098;6.064;2022-12-04T16:26:28;3.40;99.90
57664;DHT22;43493;53.098;6.064;2022-12-04T16:28:53;3.40;99.90
57664;DHT22;43493;53.098;6.064;2022-12-04T16:31:19;3.40;99.90
57664;DHT22;43493;53.098;6.064;2022-12-04T16:33:46;3.40;99.90
57664;DHT22;43493;53.098;6.064;2022-12-04T16:36:11;3.40;99.90
57664;DHT22;43493;53.098;6.064;2022-12-04T16:38:37;3.40;99.90
57664;DHT22;43493;53.098;6.064;2022-12-04T16:41:13;3.40;99.90
57664;DHT22;43493;53.098;6.064;2022-12-04T16:43:39;3.40;99.90
57664;DHT22;43493;53.098;6.064;2022-12-04T16:46:08;3.40;99.90
57664;DHT22;43493;53.098;6.064;2022-12-04T16:48:36;3.40;99.90
57664;DHT22;43493;53.098;6.064;2022-12-04T16:51:02;3.40;99.90
57664;DHT22;43493;53.098;6.064;2022-12-04T16:53:28;3.40;99.90
57664;DHT22;43493;53.098;6.064;2022-12-04T16:55:54;3.50;99.90
57664;DHT22;43493;53.098;6.064;2022-12-04T16:58:20;3.50;99.90
57664;DHT22;43493;53.098;6.064;2022-12-04T17:00:52;3.50;99.90
57664;DHT22;43493;53.098;6.064;2022-12-04T17:03:29;3.50;99.90
57664;DHT22;43493;53.098;6.064;2022-12-04T17:05:56;3.50;99.90
57664;DHT22;43493;53.098;6.064;2022-12-04T17:08:22;3.40;99.90
57664;DHT22;43493;53.098;6.064;2022-12-04T17:10:48;3.50;99.90
57664;DHT22;43493;53.098;6.064;2022-12-04T17:13:16;3.50;99.90
57664;DHT22;43493;53.098;6.064;2022-12-04T17:15:42;3.60;99.90
57664;DHT22;43493;53.098;6.064;2022-12-04T17:18:08;3.50;99.90
57664;DHT22;43493;53.098;6.064;2022-12-04T17:20:34;3.50;99.90
57664;DHT22;43493;53.098;6.064;2022-12-04T17:22:59;3.60;99.90
57664;DHT22;43493;53.098;6.064;2022-12-04T17:25:25;3.60;99.90
57664;DHT22;43493;53.098;6.064;2022-12-04T17:27:51;3.60;99.90
57664;DHT22;43493;53.098;6.064;2022-12-04T17:30:16;3.60;99.90
57664;DHT22;43493;53.098;6.064;2022-12-04T17:32:42;3.60;99.90
57664;DHT22;43493;53.098;6.064;2022-12-04T17:35:10;3.60;99.90
57664;DHT22;43493;53.098;6.064;2022-12-04T17:37:36;3.60;99.90
57664;DHT22;43493;53.098;6.064;2022-12-04T17:40:07;3.60;99.90
57664;DHT22;43493;53.098;6.064;2022-12-04T17:42:34;3.60;99.90
57664;DHT22;43493;53.098;6.064;2022-12-04T17:45:01;3.60;99.90
57664;DHT22;43493;53.098;6.064;2022-12-04T17:47:26;3.70;99.90
57664;DHT22;43493;53.098;6.064;2022-12-04T17:49:52;3.70;99.90
57664;DHT22;43493;53.098;6.064;2022-12-04T17:52:18;3.70;99.90
57664;DHT22;43493;53.098;6.064;2022-12-04T17:54:50;3.80;99.90
57664;DHT22;43493;53.098;6.064;2022-12-04T17:57:17;3.80;99.90
57664;DHT22;43493;53.098;6.064;2022-12-04T17:59:43;3.70;99.90
57664;DHT22;43493;53.098;6.064;2022-12-04T18:02:10;3.80;99.90
57664;DHT22;43493;53.098;6.064;2022-12-04T18:04:36;3.80;99.90
57664;DHT22;43493;53.098;6.064;2022-12-04T18:07:02;3.80;99.90
57664;DHT22;43493;53.098;6.064;2022-12-04T18:09:28;3.80;99.90
57664;DHT22;43493;53.098;6.064;2022-12-04T18:11:54;3.80;99.90
57664;DHT22;43493;53.098;6.064;2022-12-04T18:14:23;3.90;99.90
57664;DHT22;43493;53.098;6.064;2022-12-04T18:16:51;3.90;99.90
57664;DHT22;43493;53.098;6.064;2022-12-04T18:19:19;3.90;99.90
57664;DHT22;43493;53.098;6.064;2022-12-04T18:21:45;3.90;99.90
57664;DHT22;43493;53.098;6.064;2022-12-04T18:24:11;3.90;99.90
57664;DHT22;43493;53.098;6.064;2022-12-04T18:26:41;3.90;99.90
57664;DHT22;43493;53.098;6.064;2022-12-04T18:29:08;3.90;99.90
57664;DHT22;43493;53.098;6.064;2022-12-04T18:31:35;3.90;99.90
57664;DHT22;43493;53.098;6.064;2022-12-04T18:34:00;3.90;99.90
57664;DHT22;43493;53.098;6.064;2022-12-04T18:36:29;3.90;99.90